Time;durP1;ratioP1;P1;durP2;ratioP2;P2;SDS_P1;SDS_P2;PMS_P1;PMS_P2;Temp;Humidity;BMP_temperature;BMP_pressure;BME280_temperature;BME280_humidity;BME280_pressure;Samples;Min_cycle;Max_cycle;Signal;HPM_P1;HPM_P2
2024/01/04 00:02:13;;;;;;;0.30;0.20;;;;;;;10.57;93.61;98409.91;5027459;28;20503;-54
2024/01/04 00:04:40;;;;;;;0.30;0.20;;;;;;;10.72;93.62;98411.66;5016183;28;20457;-54
2024/01/04 00:07:07;;;;;;;0.30;0.20;;;;;;;10.57;93.73;98401.94;5027201;28;20996;-54
2024/01/04 00:09:33;;;;;;;0.30;0.20;;;;;;;10.63;94.21;98417.50;5023745;28;21006;-54
2024/01/04 00:12:00;;;;;;;0.30;0.20;;;;;;;10.60;93.93;98420.34;5030292;28;20822;-54
2024/01/04 00:14:27;;;;;;;0.30;0.20;;;;;;;10.53;93.73;98417.16;5023687;28;20452;-54
2024/01/04 00:16:53;;;;;;;0.30;0.20;;;;;;;10.53;95.13;98424.28;5025896;28;20428;-54
2024/01/04 00:19:19;;;;;;;0.30;0.20;;;;;;;10.54;95.22;98418.88;5017140;28;20445;-54
2024/01/04 00:21:46;;;;;;;0.30;0.20;;;;;;;10.50;95.48;98421.81;5026805;28;20473;-54
2024/01/04 00:24:12;;;;;;;0.30;0.20;;;;;;;10.44;95.96;98425.69;5023817;28;20454;-54
2024/01/04 00:26:39;;;;;;;0.30;0.20;;;;;;;10.55;96.08;98425.94;5019802;28;20456;-54
2024/01/04 00:29:05;;;;;;;0.30;0.20;;;;;;;10.53;96.35;98425.13;5023457;28;20456;-54
2024/01/04 00:31:32;;;;;;;0.30;0.20;;;;;;;10.55;96.20;98436.56;5026643;28;20504;-54
2024/01/04 00:33:58;;;;;;;0.30;0.20;;;;;;;10.53;96.30;98441.09;5020584;28;20541;-54
2024/01/04 00:36:25;;;;;;;0.30;0.20;;;;;;;10.41;95.97;98439.13;5001006;28;20851;-54
2024/01/04 00:38:51;;;;;;;0.30;0.20;;;;;;;10.44;95.97;98438.97;5013880;28;20535;-54
2024/01/04 00:41:18;;;;;;;0.30;0.20;;;;;;;10.54;95.89;98444.59;5025650;28;20504;-54
2024/01/04 00:43:44;;;;;;;0.30;0.20;;;;;;;10.59;95.89;98440.75;5026150;28;20543;-53
2024/01/04 00:46:11;;;;;;;0.30;0.20;;;;;;;10.47;96.16;98444.09;5021030;28;20447;-54
2024/01/04 00:48:37;;;;;;;0.30;0.20;;;;;;;10.80;96.10;98446.59;5019294;28;20535;-56
2024/01/04 00:51:04;;;;;;;0.30;0.20;;;;;;;10.64;95.95;98445.78;5025831;28;20514;-56
2024/01/04 00:53:30;;;;;;;0.30;0.20;;;;;;;10.65;95.44;98450.13;5019902;28;20468;-56
2024/01/04 00:55:57;;;;;;;0.30;0.20;;;;;;;10.58;95.66;98448.81;5024759;28;20562;-56
2024/01/04 00:58:23;;;;;;;0.30;0.20;;;;;;;10.49;95.33;98446.66;5026437;28;20448;-56
2024/01/04 01:00:50;;;;;;;0.30;0.20;;;;;;;10.48;95.66;98452.94;5021352;28;20451;-55
2024/01/04 01:03:16;;;;;;;0.30;0.20;;;;;;;10.49;95.47;98441.34;5019409;28;20448;-56
2024/01/04 01:05:43;;;;;;;0.30;0.20;;;;;;;10.55;94.95;98448.97;5031913;28;20454;-55
2024/01/04 01:08:10;;;;;;;0.30;0.20;;;;;;;10.53;94.67;98458.81;5017386;28;20949;-56
2024/01/04 01:10:36;;;;;;;0.30;0.20;;;;;;;10.59;94.94;98461.13;5021890;28;20529;-56
2024/01/04 01:13:03;;;;;;;0.30;0.20;;;;;;;10.48;94.31;98460.91;5018945;28;20459;-56
2024/01/04 01:15:29;;;;;;;0.30;0.20;;;;;;;10.51;94.76;98485.47;5013942;28;20452;-56
2024/01/04 01:17:56;;;;;;;0.30;0.20;;;;;;;10.69;94.37;98467.63;5015053;28;20536;-53
2024/01/04 01:20:22;;;;;;;0.30;0.20;;;;;;;10.59;94.50;98474.44;5023346;28;20543;-53
2024/01/04 01:22:49;;;;;;;0.30;0.20;;;;;;;10.63;94.38;98479.47;5026023;28;20480;-53
2024/01/04 01:25:15;;;;;;;0.30;0.20;;;;;;;10.59;95.21;98479.75;5021898;28;20546;-54
2024/01/04 01:27:42;;;;;;;0.30;0.20;;;;;;;10.56;95.00;98486.09;5018717;28;20546;-54
2024/01/04 01:30:09;;;;;;;0.30;0.20;;;;;;;10.63;95.64;98489.22;5023395;28;20551;-53
2024/01/04 01:32:35;;;;;;;0.30;0.20;;;;;;;10.72;94.73;98502.00;5018465;28;20476;-54
2024/01/04 01:35:02;;;;;;;0.30;0.20;;;;;;;10.55;95.48;98513.59;5020469;28;20452;-56
2024/01/04 01:37:28;;;;;;;0.30;0.20;;;;;;;10.42;96.71;98504.63;5011271;28;20471;-55
2024/01/04 01:39:55;;;;;;;0.30;0.20;;;;;;;10.41;97.28;98512.66;5012525;28;20629;-56
2024/01/04 01:42:21;;;;;;;0.30;0.20;;;;;;;10.44;97.42;98518.66;5023416;28;20838;-56
2024/01/04 01:44:48;;;;;;;0.30;0.20;;;;;;;10.43;98.03;98522.25;5023808;28;20460;-55
2024/01/04 01:47:16;;;;;;;0.30;0.20;;;;;;;10.47;98.16;98526.44;5016028;28;20586;-56
2024/01/04 01:49:42;;;;;;;0.30;0.20;;;;;;;10.54;98.35;98519.84;5021826;28;20447;-56
2024/01/04 01:52:09;;;;;;;0.30;0.20;;;;;;;10.41;98.27;98521.47;5015490;28;20480;-56
2024/01/04 01:54:36;;;;;;;0.30;0.20;;;;;;;10.41;98.79;98531.22;5021864;28;20458;-56
2024/01/04 01:57:02;;;;;;;0.30;0.20;;;;;;;10.42;99.14;98538.28;5017787;28;20455;-56
2024/01/04 01:59:29;;;;;;;0.30;0.20;;;;;;;10.31;99.38;98544.19;5025101;28;20463;-56
2024/01/04 02:01:55;;;;;;;0.30;0.20;;;;;;;10.47;99.33;98554.81;5014649;28;20480;-56
2024/01/04 02:04:22;;;;;;;0.30;0.20;;;;;;;10.38;99.37;98558.84;5022331;28;21047;-56
2024/01/04 02:06:48;;;;;;;0.30;0.20;;;;;;;10.45;98.70;98570.00;5018182;28;20464;-56
2024/01/04 02:09:15;;;;;;;0.30;0.20;;;;;;;10.51;98.80;98572.28;5021156;28;20550;-56
2024/01/04 02:11:44;;;;;;;0.30;0.20;;;;;;;10.36;99.15;98566.88;5024866;28;20469;-55
2024/01/04 02:14:10;;;;;;;0.30;0.20;;;;;;;10.36;99.07;98568.69;5021640;28;20550;-56
2024/01/04 02:16:37;;;;;;;0.30;0.20;;;;;;;10.31;99.40;98581.38;5018095;28;20948;-56
2024/01/04 02:19:07;;;;;;;0.30;0.20;;;;;;;10.38;99.15;98580.06;5020804;28;20455;-55
2024/01/04 02:21:37;;;;;;;0.30;0.20;;;;;;;10.50;98.38;98575.88;5029848;28;20468;-56
2024/01/04 02:24:05;;;;;;;0.30;0.20;;;;;;;10.35;97.59;98586.41;5019523;28;20453;-56
2024/01/04 02:26:32;;;;;;;0.30;0.20;;;;;;;10.47;97.79;98589.34;5017234;28;20454;-56
2024/01/04 02:28:59;;;;;;;0.30;0.20;;;;;;;10.55;97.22;98590.66;5014506;28;20512;-56
2024/01/04 02:31:25;;;;;;;0.30;0.20;;;;;;;10.53;96.23;98602.28;5024868;28;20477;-56
2024/01/04 02:33:51;;;;;;;0.30;0.20;;;;;;;10.53;95.25;98612.91;5011781;28;20606;-56
2024/01/04 02:36:18;;;;;;;0.30;0.20;;;;;;;10.44;94.30;98611.63;5011505;28;20452;-56
2024/01/04 02:38:44;;;;;;;0.30;0.20;;;;;;;10.49;93.47;98617.53;5023512;28;20492;-56
2024/01/04 02:41:11;;;;;;;0.30;0.20;;;;;;;10.55;92.79;98616.31;5011637;28;20472;-56
2024/01/04 02:43:37;;;;;;;0.30;0.20;;;;;;;10.58;91.92;98611.72;5024736;28;20538;-56
2024/01/04 02:46:04;;;;;;;0.30;0.20;;;;;;;10.61;92.75;98619.50;5018047;28;20956;-55
2024/01/04 02:48:30;;;;;;;0.30;0.20;;;;;;;10.57;92.69;98622.44;5018003;28;20583;-54
2024/01/04 02:50:57;;;;;;;0.30;0.20;;;;;;;10.53;92.72;98628.84;5024872;28;20480;-54
2024/01/04 02:53:23;;;;;;;0.30;0.20;;;;;;;10.66;92.56;98620.09;5012612;28;20886;-54
2024/01/04 02:55:50;;;;;;;0.30;0.20;;;;;;;10.59;92.37;98636.50;5024752;28;20539;-54
2024/01/04 02:58:16;;;;;;;0.30;0.20;;;;;;;10.62;92.08;98631.84;5018016;28;20537;-54
2024/01/04 03:00:42;;;;;;;0.30;0.20;;;;;;;10.69;91.90;98635.06;5023709;28;20543;-54
2024/01/04 03:03:09;;;;;;;0.30;0.20;;;;;;;10.64;91.65;98645.91;5024600;28;21089;-54
2024/01/04 03:05:35;;;;;;;0.30;0.20;;;;;;;10.76;91.71;98638.22;5018723;28;20556;-54
2024/01/04 03:08:02;;;;;;;0.30;0.20;;;;;;;10.61;91.82;98648.75;5020112;28;20492;-54
2024/01/04 03:10:28;;;;;;;0.30;0.20;;;;;;;10.59;91.94;98647.13;5029865;28;20543;-54
2024/01/04 03:12:55;;;;;;;0.30;0.20;;;;;;;10.67;91.79;98663.47;5021689;28;20487;-54
2024/01/04 03:15:22;;;;;;;0.30;0.20;;;;;;;10.61;92.62;98663.84;5026982;28;20454;-54
2024/01/04 03:17:49;;;;;;;0.30;0.20;;;;;;;10.68;92.09;98665.19;5028218;28;20455;-54
2024/01/04 03:20:16;;;;;;;0.30;0.20;;;;;;;10.57;92.06;98665.81;5023192;28;20506;-54
2024/01/04 03:22:42;;;;;;;0.30;0.20;;;;;;;10.68;91.99;98673.16;5021726;28;20475;-54
2024/01/04 03:25:10;;;;;;;0.30;0.20;;;;;;;10.67;91.57;98677.63;5040401;28;20452;-54
2024/01/04 03:27:37;;;;;;;0.30;0.20;;;;;;;10.55;92.02;98672.13;5027981;28;20884;-54
2024/01/04 03:30:04;;;;;;;0.30;0.20;;;;;;;10.63;91.53;98678.75;5023387;28;20458;-54
2024/01/04 03:32:30;;;;;;;0.30;0.20;;;;;;;10.65;91.78;98676.84;5028100;28;20479;-54
2024/01/04 03:34:57;;;;;;;0.30;0.20;;;;;;;10.74;91.66;98675.50;5014377;28;21005;-54
2024/01/04 03:37:23;;;;;;;0.30;0.20;;;;;;;10.75;90.86;98676.34;5014550;28;20535;-54
2024/01/04 03:39:50;;;;;;;0.30;0.20;;;;;;;10.74;90.88;98682.63;5023247;28;20889;-54
2024/01/04 03:42:16;;;;;;;0.30;0.20;;;;;;;10.66;90.69;98677.72;5019161;28;20583;-54
2024/01/04 03:44:43;;;;;;;0.30;0.20;;;;;;;10.62;91.22;98686.81;5023620;28;20452;-54
2024/01/04 03:47:09;;;;;;;0.30;0.20;;;;;;;10.76;90.63;98696.66;5013138;28;20477;-54
2024/01/04 03:49:36;;;;;;;0.30;0.20;;;;;;;10.72;90.93;98697.78;5018186;28;20535;-54
2024/01/04 03:52:03;;;;;;;0.30;0.20;;;;;;;10.74;90.49;98699.41;5027180;28;20483;-54
2024/01/04 03:54:29;;;;;;;0.30;0.20;;;;;;;10.62;91.63;98708.91;5023667;28;20455;-54
2024/01/04 03:56:57;;;;;;;0.30;0.20;;;;;;;10.70;91.65;98705.00;5020949;28;20551;-54
2024/01/04 03:59:23;;;;;;;0.30;0.20;;;;;;;10.70;91.67;98697.88;5024181;28;20822;-54
2024/01/04 04:01:49;;;;;;;0.30;0.20;;;;;;;10.50;92.13;98706.91;5026325;28;20566;-54
2024/01/04 04:04:16;;;;;;;0.30;0.20;;;;;;;10.56;92.32;98703.09;5016016;28;20478;-54
2024/01/04 04:06:43;;;;;;;0.30;0.20;;;;;;;10.71;92.82;98707.56;5027281;28;20499;-54
2024/01/04 04:09:09;;;;;;;0.30;0.20;;;;;;;10.56;93.13;98708.41;5009252;28;21128;-54
2024/01/04 04:11:36;;;;;;;0.30;0.20;;;;;;;10.50;92.73;98712.22;5027199;28;20928;-54
2024/01/04 04:14:02;;;;;;;0.30;0.20;;;;;;;10.55;93.11;98715.50;5024032;28;20814;-54
2024/01/04 04:16:29;;;;;;;0.30;0.20;;;;;;;10.49;92.79;98725.59;5020198;28;20490;-54
2024/01/04 04:18:55;;;;;;;0.30;0.20;;;;;;;10.49;92.94;98722.94;5025524;28;20890;-54
2024/01/04 04:21:23;;;;;;;0.30;0.20;;;;;;;10.56;92.98;98725.19;5021454;28;20506;-54
2024/01/04 04:23:50;;;;;;;0.30;0.20;;;;;;;10.52;92.43;98736.91;5038118;28;20535;-55
2024/01/04 04:26:21;;;;;;;0.30;0.20;;;;;;;10.80;91.83;98730.97;5018324;28;20461;-54
2024/01/04 04:28:48;;;;;;;0.30;0.20;;;;;;;10.71;91.59;98731.47;5021919;28;20497;-53
2024/01/04 04:31:16;;;;;;;0.30;0.20;;;;;;;10.82;90.76;98739.72;5026757;28;20468;-54
2024/01/04 04:33:46;;;;;;;0.30;0.20;;;;;;;10.78;91.07;98742.63;5024574;28;20945;-54
2024/01/04 04:36:14;;;;;;;0.30;0.20;;;;;;;10.83;91.28;98752.09;5013323;28;20455;-54
2024/01/04 04:38:43;;;;;;;0.30;0.20;;;;;;;10.81;91.15;98743.31;5013800;28;20448;-56
2024/01/04 04:41:10;;;;;;;0.30;0.20;;;;;;;10.99;90.57;98749.44;5013438;28;20483;-55
2024/01/04 04:43:36;;;;;;;0.30;0.20;;;;;;;10.82;90.24;98744.16;5026028;28;20819;-54
2024/01/04 04:46:08;;;;;;;0.30;0.20;;;;;;;10.89;90.30;98743.75;5019741;28;20452;-55
2024/01/04 04:48:36;;;;;;;0.30;0.20;;;;;;;10.86;90.04;98748.41;5019244;28;20480;-55
2024/01/04 04:51:03;;;;;;;0.30;0.20;;;;;;;10.87;90.23;98753.63;5013255;28;20488;-56
2024/01/04 04:53:29;;;;;;;0.30;0.20;;;;;;;10.81;89.90;98751.28;5026346;28;20455;-55
2024/01/04 04:55:56;;;;;;;0.30;0.20;;;;;;;10.78;89.35;98755.91;5020419;28;20462;-55
2024/01/04 04:58:22;;;;;;;0.30;0.20;;;;;;;10.81;89.47;98755.75;5019074;28;20539;-55
2024/01/04 05:00:49;;;;;;;0.30;0.20;;;;;;;10.92;88.66;98756.03;5020014;28;20527;-55
2024/01/04 05:03:15;;;;;;;0.30;0.20;;;;;;;10.85;89.18;98759.97;5019527;28;20456;-55
2024/01/04 05:05:42;;;;;;;0.30;0.20;;;;;;;11.03;88.28;98761.63;5025185;28;20828;-55
2024/01/04 05:08:08;;;;;;;0.30;0.20;;;;;;;10.91;88.08;98762.28;5026088;28;20860;-55
2024/01/04 05:10:35;;;;;;;0.30;0.20;;;;;;;10.79;88.34;98785.06;5020411;28;20452;-55
2024/01/04 05:13:02;;;;;;;0.30;0.20;;;;;;;10.82;88.10;98773.41;5019467;28;20647;-55
2024/01/04 05:15:28;;;;;;;0.30;0.20;;;;;;;10.81;87.57;98775.19;5023661;28;20452;-55
2024/01/04 05:17:54;;;;;;;0.30;0.20;;;;;;;10.81;87.58;98787.63;5012473;28;20941;-55
2024/01/04 05:20:22;;;;;;;0.30;0.20;;;;;;;11.02;87.53;98790.94;5024656;28;20459;-55
2024/01/04 05:22:48;;;;;;;0.30;0.20;;;;;;;10.79;87.75;98801.00;5025704;28;20471;-55
2024/01/04 05:25:15;;;;;;;0.30;0.20;;;;;;;10.90;87.70;98800.44;5020853;28;20559;-53
2024/01/04 05:27:41;;;;;;;0.30;0.20;;;;;;;10.95;87.31;98809.88;5018960;28;20452;-54
2024/01/04 05:30:08;;;;;;;0.30;0.20;;;;;;;10.87;87.68;98814.75;5023413;28;21052;-54
2024/01/04 05:32:35;;;;;;;0.30;0.20;;;;;;;10.81;87.33;98815.06;5025241;28;20471;-54
2024/01/04 05:35:03;;;;;;;0.30;0.20;;;;;;;10.92;87.14;98810.03;5012255;28;20444;-54
2024/01/04 05:37:29;;;;;;;0.30;0.20;;;;;;;10.88;87.41;98808.50;5012516;28;20463;-55
2024/01/04 05:39:55;;;;;;;0.30;0.20;;;;;;;10.86;87.97;98820.16;5012479;28;20884;-56
2024/01/04 05:42:27;;;;;;;0.30;0.20;;;;;;;10.77;87.93;98817.97;5016047;28;20468;-56
2024/01/04 05:44:53;;;;;;;0.30;0.20;;;;;;;10.92;87.89;98825.13;5021463;28;20956;-55
2024/01/04 05:47:20;;;;;;;0.30;0.20;;;;;;;10.81;87.21;98825.69;5025570;28;20455;-55
2024/01/04 05:49:46;;;;;;;0.30;0.20;;;;;;;10.76;87.66;98834.88;5022579;28;20645;-55
2024/01/04 05:52:13;;;;;;;0.30;0.20;;;;;;;10.64;88.24;98842.53;5018490;28;20487;-55
2024/01/04 05:54:39;;;;;;;0.30;0.20;;;;;;;10.78;87.98;98846.28;5021629;28;20540;-55
2024/01/04 05:57:07;;;;;;;0.30;0.20;;;;;;;11.00;87.18;98856.66;5025071;28;20480;-55
2024/01/04 05:59:34;;;;;;;0.30;0.20;;;;;;;10.74;87.96;98847.38;5023257;28;20527;-56
2024/01/04 06:02:00;;;;;;;0.30;0.20;;;;;;;10.89;86.92;98849.22;5018605;28;20453;-55
2024/01/04 06:04:27;;;;;;;0.30;0.20;;;;;;;10.97;87.13;98850.56;5020628;28;20488;-55
2024/01/04 06:06:53;;;;;;;0.30;0.20;;;;;;;10.79;87.14;98854.16;5025153;28;20961;-56
2024/01/04 06:09:21;;;;;;;0.30;0.20;;;;;;;10.64;87.11;98858.50;5023127;28;21028;-56
2024/01/04 06:11:50;;;;;;;0.30;0.20;;;;;;;10.63;87.24;98864.75;5015859;28;20471;-55
2024/01/04 06:14:17;;;;;;;0.30;0.20;;;;;;;10.65;87.05;98862.00;5023784;28;20456;-55
2024/01/04 06:16:44;;;;;;;0.30;0.20;;;;;;;10.74;87.48;98874.81;5018120;28;20951;-55
2024/01/04 06:19:10;;;;;;;0.30;0.20;;;;;;;10.84;86.90;98862.78;5019413;28;21011;-55
2024/01/04 06:21:38;;;;;;;0.30;0.20;;;;;;;10.95;87.04;98868.38;5011716;28;20468;-56
2024/01/04 06:24:04;;;;;;;0.30;0.20;;;;;;;10.82;87.37;98863.78;5010663;28;20510;-56
2024/01/04 06:26:31;;;;;;;0.30;0.20;;;;;;;10.77;87.16;98879.97;5017105;28;20452;-56
2024/01/04 06:28:57;;;;;;;0.30;0.20;;;;;;;10.79;87.30;98882.53;5019280;28;20937;-56
2024/01/04 06:31:24;;;;;;;0.30;0.20;;;;;;;10.80;87.63;98884.25;5010471;28;20556;-55
2024/01/04 06:33:54;;;;;;;0.30;0.20;;;;;;;10.72;87.40;98887.34;5011940;28;20445;-55
2024/01/04 06:36:20;;;;;;;0.30;0.20;;;;;;;10.61;87.83;98895.00;5011483;28;20434;-56
2024/01/04 06:38:47;;;;;;;0.30;0.20;;;;;;;10.54;87.79;98891.78;5011821;28;20455;-56
2024/01/04 06:41:14;;;;;;;0.30;0.20;;;;;;;10.65;88.22;98900.06;5024383;28;20899;-56
2024/01/04 06:43:40;;;;;;;0.30;0.20;;;;;;;10.56;88.04;98905.88;5015318;28;20535;-55
2024/01/04 06:46:07;;;;;;;0.30;0.20;;;;;;;10.55;88.10;98900.59;5022642;28;20542;-56
2024/01/04 06:48:37;;;;;;;0.30;0.20;;;;;;;10.54;88.45;98917.47;5021942;28;20535;-55
2024/01/04 06:51:04;;;;;;;0.30;0.20;;;;;;;10.64;88.04;98910.78;5027076;28;20483;-56
2024/01/04 06:53:30;;;;;;;0.30;0.20;;;;;;;10.65;88.06;98923.13;5028458;28;20456;-56
2024/01/04 06:55:57;;;;;;;0.30;0.20;;;;;;;10.67;87.96;98919.44;5023950;28;20516;-55
2024/01/04 06:58:23;;;;;;;0.30;0.20;;;;;;;10.50;88.71;98932.72;5020402;28;20449;-56
2024/01/04 07:00:50;;;;;;;0.30;0.20;;;;;;;10.65;88.51;98937.25;5015356;28;20591;-55
2024/01/04 07:03:19;;;;;;;0.30;0.20;;;;;;;10.55;89.73;98943.13;5030447;28;20815;-55
2024/01/04 07:05:46;;;;;;;0.30;0.20;;;;;;;10.46;89.93;98943.59;5025682;28;20456;-56
2024/01/04 07:08:13;;;;;;;0.30;0.20;;;;;;;10.51;90.32;98946.88;5028405;28;20509;-55
2024/01/04 07:10:42;;;;;;;0.30;0.20;;;;;;;10.23;91.19;98953.53;5024363;28;20523;-56
2024/01/04 07:13:09;;;;;;;0.30;0.20;;;;;;;10.32;91.68;98949.59;5024516;28;20463;-56
2024/01/04 07:15:35;;;;;;;0.30;0.20;;;;;;;10.33;91.98;98957.47;5025690;28;20453;-56
2024/01/04 07:18:01;;;;;;;0.30;0.20;;;;;;;10.51;91.75;98954.84;5028104;28;20828;-55
2024/01/04 07:20:28;;;;;;;0.30;0.20;;;;;;;10.35;92.36;98954.75;5022841;28;20809;-55
2024/01/04 07:22:55;;;;;;;0.30;0.20;;;;;;;10.40;91.64;98971.31;5021303;28;20503;-55
2024/01/04 07:25:22;;;;;;;0.30;0.20;;;;;;;10.62;91.74;98982.59;5025136;28;20456;-56
2024/01/04 07:27:48;;;;;;;0.30;0.20;;;;;;;10.44;92.39;98977.34;5028198;28;20546;-56
2024/01/04 07:30:15;;;;;;;0.30;0.20;;;;;;;10.51;91.96;98990.25;5024531;28;20499;-56
2024/01/04 07:32:42;;;;;;;0.30;0.20;;;;;;;10.42;92.31;98997.81;5020836;28;20467;-55
2024/01/04 07:35:12;;;;;;;0.30;0.20;;;;;;;10.59;92.40;99003.16;5021545;28;20863;-55
2024/01/04 07:37:43;;;;;;;0.30;0.20;;;;;;;10.62;92.06;98997.69;5019518;28;20537;-55
2024/01/04 07:40:11;;;;;;;0.30;0.20;;;;;;;10.52;92.22;98988.44;5023271;28;20480;-56
2024/01/04 07:42:38;;;;;;;0.30;0.20;;;;;;;10.60;92.23;98991.59;5028987;28;20923;-56
2024/01/04 07:45:05;;;;;;;0.30;0.20;;;;;;;10.60;92.27;98996.91;5023477;28;20459;-56
2024/01/04 07:47:36;;;;;;;0.30;0.20;;;;;;;10.52;91.38;98996.41;5027638;28;20448;-55
2024/01/04 07:50:06;;;;;;;0.30;0.20;;;;;;;10.54;92.33;99008.69;5027218;28;20494;-56
2024/01/04 07:52:33;;;;;;;0.30;0.20;;;;;;;10.58;91.84;99009.41;5020614;28;20848;-56
2024/01/04 07:54:59;;;;;;;0.30;0.20;;;;;;;10.63;91.15;99002.06;5020056;28;20543;-56
2024/01/04 07:57:31;;;;;;;0.30;0.20;;;;;;;10.66;90.51;99004.56;5009071;28;20452;-55
2024/01/04 07:59:57;;;;;;;0.30;0.20;;;;;;;10.62;91.66;99013.63;5020604;28;20440;-56
2024/01/04 08:02:28;;;;;;;0.30;0.20;;;;;;;10.55;91.54;99012.19;5034213;28;20468;-55
2024/01/04 08:04:54;;;;;;;0.30;0.20;;;;;;;10.74;90.77;99015.69;5020628;28;20476;-56
2024/01/04 08:07:21;;;;;;;0.30;0.20;;;;;;;10.75;90.53;99012.09;5026217;28;20459;-56
2024/01/04 08:09:48;;;;;;;0.30;0.20;;;;;;;10.87;90.65;99024.75;5027243;28;20519;-56
2024/01/04 08:12:14;;;;;;;0.30;0.20;;;;;;;10.72;89.64;99019.34;5016168;28;20556;-56
2024/01/04 08:14:41;;;;;;;0.30;0.20;;;;;;;10.77;89.93;99023.50;5026989;28;20923;-55
2024/01/04 08:17:07;;;;;;;0.30;0.20;;;;;;;10.85;89.49;99026.66;5022250;28;20957;-55
2024/01/04 08:19:34;;;;;;;0.30;0.20;;;;;;;10.63;89.84;99037.47;5020002;28;20445;-55
2024/01/04 08:22:00;;;;;;;0.30;0.20;;;;;;;10.74;88.87;99033.44;5025110;28;20843;-56
2024/01/04 08:24:28;;;;;;;0.30;0.20;;;;;;;10.75;90.07;99043.97;5026866;28;20458;-55
2024/01/04 08:26:55;;;;;;;0.30;0.20;;;;;;;10.86;88.88;99046.97;5022412;28;20448;-55
2024/01/04 08:29:22;;;;;;;0.30;0.20;;;;;;;10.76;89.34;99045.69;5030829;28;21023;-56
2024/01/04 08:31:49;;;;;;;0.30;0.20;;;;;;;10.79;90.35;99050.00;5022030;28;20556;-56
2024/01/04 08:34:16;;;;;;;0.30;0.20;;;;;;;10.70;90.52;99051.34;5017544;28;20448;-55
2024/01/04 08:36:43;;;;;;;0.30;0.20;;;;;;;10.96;90.27;99055.31;5013348;28;20532;-55
2024/01/04 08:39:10;;;;;;;0.30;0.20;;;;;;;10.91;90.29;99060.03;5016487;28;20540;-55
2024/01/04 08:41:37;;;;;;;0.30;0.20;;;;;;;10.96;90.11;99072.19;5023177;28;20472;-55
2024/01/04 08:44:03;;;;;;;0.30;0.20;;;;;;;10.77;90.72;99067.81;5026551;28;20457;-55
2024/01/04 08:46:30;;;;;;;0.30;0.20;;;;;;;10.77;91.17;99076.66;5013538;28;20476;-54
2024/01/04 08:48:56;;;;;;;0.30;0.20;;;;;;;10.71;91.79;99078.75;5026311;28;20501;-55
2024/01/04 08:51:23;;;;;;;0.30;0.20;;;;;;;10.83;91.59;99081.69;5023523;28;20571;-56
2024/01/04 08:53:49;;;;;;;0.30;0.20;;;;;;;10.86;92.21;99084.19;5029383;28;20453;-55
2024/01/04 08:56:19;;;;;;;0.30;0.20;;;;;;;10.70;91.78;99087.69;5023244;28;20431;-55
2024/01/04 08:58:45;;;;;;;0.30;0.20;;;;;;;10.84;92.15;99095.84;5019863;28;20552;-55
2024/01/04 09:01:12;;;;;;;0.30;0.20;;;;;;;10.60;93.04;99097.88;5022298;28;20474;-56
2024/01/04 09:03:39;;;;;;;0.30;0.20;;;;;;;10.73;91.91;99104.31;5026267;28;20460;-54
2024/01/04 09:06:07;;;;;;;0.30;0.20;;;;;;;10.72;92.45;99101.75;5023478;28;20491;-54
2024/01/04 09:08:35;;;;;;;0.30;0.20;;;;;;;10.66;92.42;99109.06;5019326;28;20958;-53
2024/01/04 09:11:03;;;;;;;0.30;0.20;;;;;;;10.72;92.14;99107.91;5021176;28;20496;-54
2024/01/04 09:13:30;;;;;;;0.30;0.20;;;;;;;10.74;92.10;99119.34;5019567;28;20459;-54
2024/01/04 09:15:58;;;;;;;0.30;0.20;;;;;;;11.00;91.93;99119.88;5021357;28;20453;-55
2024/01/04 09:18:24;;;;;;;0.30;0.20;;;;;;;10.84;91.80;99136.56;5017835;28;20447;-55
2024/01/04 09:20:51;;;;;;;0.30;0.20;;;;;;;10.73;91.19;99130.91;5020829;28;20460;-54
2024/01/04 09:23:18;;;;;;;0.30;0.20;;;;;;;10.72;89.65;99137.16;5017726;28;20451;-55
2024/01/04 09:25:45;;;;;;;0.30;0.20;;;;;;;10.95;88.95;99147.53;5020411;28;20486;-54
2024/01/04 09:28:11;;;;;;;0.30;0.20;;;;;;;10.81;88.59;99160.63;5025925;28;20457;-55
2024/01/04 09:30:38;;;;;;;0.30;0.20;;;;;;;10.94;88.17;99163.56;5024906;28;20523;-54
2024/01/04 09:33:07;;;;;;;0.30;0.20;;;;;;;10.95;88.56;99167.94;5013256;28;20868;-54
2024/01/04 09:35:34;;;;;;;0.30;0.20;;;;;;;11.04;87.98;99166.63;5012046;28;20449;-55
2024/01/04 09:38:00;;;;;;;0.30;0.20;;;;;;;10.94;88.06;99174.19;5019675;28;20482;-55
2024/01/04 09:40:27;;;;;;;0.30;0.20;;;;;;;11.06;87.48;99180.72;5019039;28;20547;-55
2024/01/04 09:42:55;;;;;;;0.30;0.20;;;;;;;11.24;87.43;99182.50;5028358;28;20629;-52
2024/01/04 09:45:28;;;;;;;0.30;0.20;;;;;;;11.23;87.05;99192.25;5018797;28;20452;-53
2024/01/04 09:47:56;;;;;;;0.30;0.20;;;;;;;11.05;87.04;99193.16;5023576;28;20444;-52
2024/01/04 09:50:24;;;;;;;0.30;0.20;;;;;;;11.06;86.31;99194.88;5025077;28;20489;-53
2024/01/04 09:52:55;;;;;;;0.30;0.20;;;;;;;11.23;85.55;99210.00;5021005;28;20483;-53
2024/01/04 09:55:22;;;;;;;0.30;0.20;;;;;;;11.07;85.69;99201.91;5018610;28;20811;-53
2024/01/04 09:57:49;;;;;;;0.30;0.20;;;;;;;11.11;85.81;99207.97;5022030;28;20539;-54
2024/01/04 10:00:16;;;;;;;0.30;0.20;;;;;;;11.07;86.08;99215.22;5025121;28;20453;-54
2024/01/04 10:02:43;;;;;;;0.30;0.20;;;;;;;11.36;86.20;99210.28;5022085;28;20861;-53
2024/01/04 10:05:15;;;;;;;0.30;0.20;;;;;;;11.37;86.20;99209.34;5033180;28;20447;-54
2024/01/04 10:07:48;;;;;;;0.30;0.20;;;;;;;11.63;85.36;99213.38;5020423;28;20451;-53
2024/01/04 10:10:20;;;;;;;0.30;0.20;;;;;;;11.60;85.74;99214.38;5024782;28;20466;-54
2024/01/04 10:12:48;;;;;;;0.30;0.20;;;;;;;11.77;85.29;99219.72;5015171;28;20859;-54
2024/01/04 10:15:15;;;;;;;0.30;0.20;;;;;;;11.81;85.15;99215.16;5024456;28;20458;-53
2024/01/04 10:17:45;;;;;;;0.30;0.20;;;;;;;11.82;85.72;99216.88;5024297;28;20940;-54
2024/01/04 10:20:13;;;;;;;0.30;0.20;;;;;;;11.63;85.46;99214.22;5019761;28;20448;-54
2024/01/04 10:22:40;;;;;;;0.30;0.20;;;;;;;11.61;86.51;99220.56;5018021;28;20472;-53
2024/01/04 10:25:08;;;;;;;0.30;0.20;;;;;;;11.44;86.58;99232.91;5022160;28;20460;-53
2024/01/04 10:27:35;;;;;;;0.30;0.20;;;;;;;11.38;87.69;99227.06;5024854;28;20518;-55
2024/01/04 10:30:03;;;;;;;0.30;0.20;;;;;;;11.53;87.35;99231.63;5019939;28;20493;-55
2024/01/04 10:32:30;;;;;;;0.30;0.20;;;;;;;11.50;87.84;99218.44;5018119;28;20534;-55
2024/01/04 10:35:05;;;;;;;0.30;0.20;;;;;;;11.48;87.47;99230.97;5020779;28;20457;-55
2024/01/04 10:37:32;;;;;;;0.30;0.20;;;;;;;11.67;87.17;99223.81;5014594;28;21027;-55
2024/01/04 10:40:03;;;;;;;0.30;0.20;;;;;;;11.49;87.12;99219.38;5021546;28;21000;-53
2024/01/04 10:42:30;;;;;;;0.30;0.20;;;;;;;11.44;86.43;99226.75;5024878;28;20499;-53
2024/01/04 10:44:56;;;;;;;0.30;0.20;;;;;;;11.41;86.91;99222.44;5020399;28;20448;-54
2024/01/04 10:47:23;;;;;;;0.30;0.20;;;;;;;11.24;86.29;99230.38;5029225;28;20458;-54
2024/01/04 10:49:57;;;;;;;0.30;0.20;;;;;;;11.41;87.36;99230.41;5019490;28;20523;-54
2024/01/04 10:52:29;;;;;;;0.30;0.20;;;;;;;11.46;85.77;99227.53;5024647;28;20587;-53
2024/01/04 10:54:59;;;;;;;0.30;0.20;;;;;;;11.34;84.62;99233.44;5024611;28;20502;-54
2024/01/04 10:57:28;;;;;;;0.30;0.20;;;;;;;11.36;83.89;99236.88;5019087;28;20459;-53
2024/01/04 10:59:55;;;;;;;0.30;0.20;;;;;;;11.42;84.01;99237.47;5017999;28;20449;-53
2024/01/04 11:02:24;;;;;;;0.30;0.20;;;;;;;11.24;84.30;99243.69;5022228;28;20469;-53
2024/01/04 11:04:52;;;;;;;0.30;0.20;;;;;;;11.31;83.92;99249.56;5024250;28;20843;-57
2024/01/04 11:07:19;;;;;;;0.30;0.20;;;;;;;11.34;83.99;99249.41;5019874;28;20831;-53
2024/01/04 11:09:46;;;;;;;0.30;0.20;;;;;;;11.40;84.48;99252.66;5017618;28;20496;-55
2024/01/04 11:12:14;;;;;;;0.30;0.20;;;;;;;11.31;81.87;99245.09;5022086;28;20476;-53
2024/01/04 11:14:41;;;;;;;0.30;0.20;;;;;;;11.54;80.67;99249.31;5024499;28;20456;-54
2024/01/04 11:17:32;;;;;;;0.30;0.20;;;;;;;11.58;81.13;99257.06;5020794;28;20447;-54
2024/01/04 11:20:16;;;;;;;0.30;0.20;;;;;;;11.66;79.79;99251.38;5017347;28;20509;-52
2024/01/04 11:22:45;;;;;;;0.30;0.20;;;;;;;11.68;79.36;99261.94;5017776;28;20471;-54
2024/01/04 11:25:12;;;;;;;0.30;0.20;;;;;;;11.74;79.17;99254.50;5022338;28;20445;-56
2024/01/04 11:27:40;;;;;;;0.30;0.20;;;;;;;11.83;78.06;99258.53;5013981;28;20457;-54
2024/01/04 11:30:09;;;;;;;0.30;0.20;;;;;;;11.72;78.95;99258.16;5025325;28;20488;-55
2024/01/04 11:32:36;;;;;;;0.30;0.20;;;;;;;11.81;79.82;99257.75;5027924;28;20480;-55
2024/01/04 11:35:03;;;;;;;0.30;0.20;;;;;;;11.70;81.35;99258.25;5014704;28;20448;-53